createdAt,value
2023-01-01T00:02:02.490Z,15.60
2023-01-01T00:04:31.918Z,15.60
2023-01-01T00:06:58.828Z,15.60
2023-01-01T00:09:44.800Z,15.60
2023-01-01T00:12:12.076Z,15.60
2023-01-01T00:14:39.501Z,15.60
2023-01-01T00:17:06.528Z,15.60
2023-01-01T00:19:33.430Z,15.60
2023-01-01T00:22:05.600Z,15.60
2023-01-01T00:24:47.669Z,15.60
2023-01-01T00:27:14.692Z,15.60
2023-01-01T00:29:41.724Z,15.60
2023-01-01T00:32:11.553Z,15.60
2023-01-01T00:34:41.558Z,15.70
2023-01-01T00:37:08.739Z,15.70
2023-01-01T00:39:35.914Z,15.70
2023-01-01T00:42:03.019Z,15.70
2023-01-01T00:44:31.823Z,15.70
2023-01-01T00:46:58.912Z,15.70
2023-01-01T00:49:25.885Z,15.60
2023-01-01T00:51:53.014Z,15.50
2023-01-01T00:54:23.874Z,15.40
2023-01-01T00:56:52.118Z,15.30
2023-01-01T00:59:20.637Z,15.20
2023-01-01T01:01:56.551Z,15.20
2023-01-01T01:04:26.507Z,15.20
2023-01-01T01:06:53.981Z,15.20
2023-01-01T01:09:21.116Z,15.30
2023-01-01T01:11:48.169Z,15.30
2023-01-01T01:14:15.206Z,15.20
2023-01-01T01:16:42.319Z,15.20
2023-01-01T01:19:15.074Z,15.20
2023-01-01T01:21:42.287Z,15.20
2023-01-01T01:24:13.245Z,15.20
2023-01-01T01:26:40.428Z,15.10
2023-01-01T01:29:11.046Z,15.00
2023-01-01T01:31:37.941Z,15.00
2023-01-01T01:34:06.123Z,15.00
2023-01-01T01:36:33.215Z,15.00
2023-01-01T01:39:04.486Z,15.00
2023-01-01T01:41:31.477Z,15.10
2023-01-01T01:44:04.780Z,15.10
2023-01-01T01:46:44.431Z,15.00
2023-01-01T01:49:18.607Z,15.10
2023-01-01T01:51:46.446Z,15.10
2023-01-01T01:54:18.789Z,15.10
2023-01-01T01:57:01.628Z,15.20
2023-01-01T01:59:33.758Z,15.20
2023-01-01T02:02:01.768Z,15.20
2023-01-01T02:04:29.568Z,15.20
2023-01-01T02:06:56.943Z,15.20
2023-01-01T02:09:24.309Z,15.20
2023-01-01T02:11:56.010Z,15.20
2023-01-01T02:14:23.025Z,15.20
2023-01-01T02:17:01.240Z,15.30
2023-01-01T02:19:31.109Z,15.30
2023-01-01T02:22:28.895Z,15.20
2023-01-01T02:25:11.111Z,15.20
2023-01-01T02:28:12.305Z,15.00
2023-01-01T02:30:41.881Z,15.00
2023-01-01T02:33:14.219Z,15.00
2023-01-01T02:35:43.699Z,15.00
2023-01-01T02:38:26.485Z,15.00
2023-01-01T02:41:14.003Z,15.10
2023-01-01T02:43:42.070Z,15.10
2023-01-01T02:46:12.454Z,15.10
2023-01-01T02:48:44.608Z,15.20
2023-01-01T02:51:14.591Z,15.20
2023-01-01T02:54:07.852Z,15.20
2023-01-01T02:56:45.635Z,15.20
2023-01-01T03:00:03.435Z,15.20
2023-01-01T03:02:45.113Z,15.30
2023-01-01T03:06:03.421Z,15.20
2023-01-01T03:09:05.953Z,15.30
2023-01-01T03:11:56.189Z,15.30
2023-01-01T03:15:04.160Z,15.30
2023-01-01T03:17:40.161Z,15.30
2023-01-01T03:20:17.119Z,15.30
2023-01-01T03:22:47.515Z,15.30
2023-01-01T03:25:25.841Z,15.20
2023-01-01T03:27:59.641Z,15.30
2023-01-01T03:30:28.811Z,15.20
2023-01-01T03:33:03.888Z,15.20
2023-01-01T03:35:35.370Z,15.20
2023-01-01T03:38:05.470Z,15.10
2023-01-01T03:40:35.182Z,15.10
2023-01-01T03:43:49.616Z,15.10
2023-01-01T03:46:20.714Z,15.10
2023-01-01T03:49:02.642Z,15.00
2023-01-01T03:51:51.833Z,15.00
2023-01-01T03:54:44.377Z,15.00
2023-01-01T03:57:14.193Z,15.00
2023-01-01T03:59:50.149Z,14.90
2023-01-01T04:02:21.528Z,14.90
2023-01-01T04:04:50.244Z,14.90
2023-01-01T04:07:17.509Z,14.90
2023-01-01T04:09:49.726Z,14.90
2023-01-01T04:12:20.764Z,14.90
2023-01-01T04:14:48.072Z,14.90
2023-01-01T04:17:15.357Z,14.90
2023-01-01T04:19:42.300Z,14.90
2023-01-01T04:22:09.291Z,14.90
2023-01-01T04:24:36.227Z,15.00
2023-01-01T04:27:03.901Z,15.00
2023-01-01T04:29:30.927Z,14.90
2023-01-01T04:31:58.245Z,14.90
2023-01-01T04:34:25.252Z,14.90
2023-01-01T04:36:52.266Z,14.90
2023-01-01T04:39:24.348Z,15.00
2023-01-01T04:41:51.417Z,14.90
2023-01-01T04:44:19.064Z,15.00
2023-01-01T04:46:48.564Z,15.00
2023-01-01T04:49:15.621Z,15.00
2023-01-01T04:51:42.608Z,15.00
2023-01-01T04:54:09.790Z,15.00
2023-01-01T04:56:41.386Z,15.00
2023-01-01T04:59:08.605Z,15.00
2023-01-01T05:01:35.747Z,15.00
2023-01-01T05:04:02.806Z,15.00
2023-01-01T05:06:29.960Z,15.00
2023-01-01T05:09:01.200Z,15.00
2023-01-01T05:11:30.206Z,15.00
2023-01-01T05:14:00.017Z,15.00
2023-01-01T05:16:30.862Z,14.90
2023-01-01T05:18:58.466Z,15.00
2023-01-01T05:21:27.739Z,15.00
2023-01-01T05:24:03.402Z,15.00
2023-01-01T05:26:33.127Z,15.00
2023-01-01T05:29:00.957Z,14.90
2023-01-01T05:31:31.282Z,15.00
2023-01-01T05:36:27.858Z,14.80
2023-01-01T05:38:56.720Z,14.90
2023-01-01T05:41:26.318Z,14.80
2023-01-01T05:43:53.759Z,14.80
2023-01-01T05:46:23.360Z,14.80
2023-01-01T05:48:58.919Z,14.80
2023-01-01T05:51:28.488Z,14.80
2023-01-01T05:53:56.451Z,14.80
2023-01-01T05:56:24.068Z,14.70
2023-01-01T05:58:51.299Z,14.70
2023-01-01T06:01:32.152Z,14.70
2023-01-01T06:04:04.079Z,14.70
2023-01-01T06:06:33.780Z,14.60
2023-01-01T06:09:05.051Z,14.60
2023-01-01T06:11:35.668Z,14.50
2023-01-01T06:14:02.867Z,14.50
2023-01-01T06:16:31.411Z,14.50
2023-01-01T06:18:59.339Z,14.50
2023-01-01T06:21:30.015Z,14.50
2023-01-01T06:23:58.871Z,14.50
2023-01-01T06:26:33.273Z,14.50
2023-01-01T06:29:02.205Z,14.50
2023-01-01T06:31:34.106Z,14.40
2023-01-01T06:34:07.068Z,14.40
2023-01-01T06:36:33.947Z,14.30
2023-01-01T06:39:03.352Z,14.30
2023-01-01T06:41:32.130Z,14.30
2023-01-01T06:44:02.227Z,14.30
2023-01-01T06:46:34.505Z,14.20
2023-01-01T06:49:04.834Z,14.20
2023-01-01T06:51:41.781Z,14.10
2023-01-01T06:54:12.751Z,14.00
2023-01-01T06:56:40.053Z,14.00
2023-01-01T06:59:07.277Z,14.00
2023-01-01T07:01:36.538Z,13.90
2023-01-01T07:04:06.183Z,13.90
2023-01-01T07:06:34.091Z,13.90
2023-01-01T07:09:03.949Z,13.90
2023-01-01T07:11:32.953Z,13.90
2023-01-01T07:14:01.980Z,13.80
2023-01-01T07:16:29.096Z,13.60
2023-01-01T07:18:57.568Z,13.40
2023-01-01T07:21:36.683Z,13.10
2023-01-01T07:24:05.692Z,12.90
2023-01-01T07:26:33.703Z,12.70
2023-01-01T07:29:07.349Z,12.60
2023-01-01T07:31:36.907Z,12.50
2023-01-01T07:34:07.677Z,12.40
2023-01-01T07:36:34.750Z,12.30
2023-01-01T07:39:03.081Z,12.10
2023-01-01T07:41:34.349Z,12.00
2023-01-01T07:44:04.296Z,11.80
2023-01-01T07:46:31.491Z,11.70
2023-01-01T07:48:58.509Z,11.60
2023-01-01T07:51:25.672Z,11.50
2023-01-01T07:53:58.184Z,11.40
2023-01-01T07:56:27.761Z,11.30
2023-01-01T07:58:54.787Z,11.30
2023-01-01T08:01:24.137Z,11.30
2023-01-01T08:03:52.940Z,11.20
2023-01-01T08:06:20.440Z,11.30
2023-01-01T08:08:47.511Z,11.30
2023-01-01T08:11:14.767Z,11.30
2023-01-01T08:13:44.277Z,11.40
2023-01-01T08:16:11.711Z,11.40
2023-01-01T08:18:38.785Z,11.50
2023-01-01T08:21:06.366Z,11.50
2023-01-01T08:23:33.744Z,11.60
2023-01-01T08:26:04.308Z,11.60
2023-01-01T08:28:31.789Z,11.70
2023-01-01T08:31:02.319Z,11.70
2023-01-01T08:33:29.475Z,11.80
2023-01-01T08:35:56.692Z,11.80
2023-01-01T08:38:24.189Z,11.80
2023-01-01T08:40:54.678Z,11.90
2023-01-01T08:43:21.796Z,11.90
2023-01-01T08:45:54.648Z,11.90
2023-01-01T08:48:31.019Z,12.00
2023-01-01T08:51:01.679Z,12.00
2023-01-01T08:53:30.885Z,12.00
2023-01-01T08:56:16.325Z,12.00
2023-01-01T08:58:45.998Z,12.10
2023-01-01T09:01:15.440Z,12.10
2023-01-01T09:03:43.447Z,12.10
2023-01-01T09:06:15.929Z,12.10
2023-01-01T09:08:43.017Z,12.10
2023-01-01T09:11:22.740Z,12.20
2023-01-01T09:13:49.893Z,12.20
2023-01-01T09:16:23.432Z,12.30
2023-01-01T09:18:53.745Z,12.30
2023-01-01T09:21:20.997Z,12.30
2023-01-01T09:23:48.295Z,12.30
2023-01-01T09:26:15.342Z,12.30
2023-01-01T09:28:45.006Z,12.30
2023-01-01T09:31:12.035Z,12.40
2023-01-01T09:33:39.618Z,12.30
2023-01-01T09:36:33.590Z,12.40
2023-01-01T09:39:03.579Z,12.40
2023-01-01T09:41:52.681Z,12.30
2023-01-01T09:44:28.751Z,12.30
2023-01-01T09:47:00.796Z,12.30
2023-01-01T09:49:46.163Z,12.30
2023-01-01T09:52:15.664Z,12.40
2023-01-01T09:54:52.289Z,12.40
2023-01-01T09:57:29.697Z,12.50
2023-01-01T10:00:00.564Z,12.50
2023-01-01T10:02:56.995Z,12.60
2023-01-01T10:05:33.568Z,12.60
2023-01-01T10:08:04.831Z,12.60
2023-01-01T10:10:50.067Z,12.60
2023-01-01T10:13:34.275Z,12.70
2023-01-01T10:16:23.957Z,12.70
2023-01-01T10:18:56.975Z,12.70
2023-01-01T10:21:39.574Z,12.80
2023-01-01T10:24:25.872Z,12.80
2023-01-01T10:26:57.084Z,12.70
2023-01-01T10:29:38.598Z,12.60
2023-01-01T10:32:35.034Z,12.50
2023-01-01T10:35:11.561Z,12.40
2023-01-01T10:37:39.428Z,12.20
2023-01-01T10:40:16.133Z,12.10
2023-01-01T10:42:47.232Z,12.10
2023-01-01T10:45:23.803Z,12.00
2023-01-01T10:48:33.438Z,11.90
2023-01-01T10:51:07.421Z,11.90
2023-01-01T10:53:38.873Z,11.90
2023-01-01T10:56:17.929Z,11.80
2023-01-01T10:58:54.689Z,11.80
2023-01-01T11:01:27.619Z,11.70
2023-01-01T11:04:03.719Z,11.70
2023-01-01T11:06:47.131Z,11.60
2023-01-01T11:09:33.275Z,11.60
2023-01-01T11:12:09.439Z,11.60
2023-01-01T11:14:53.786Z,11.50
2023-01-01T11:17:26.747Z,11.60
2023-01-01T11:20:01.281Z,11.60
2023-01-01T11:22:38.968Z,11.60
2023-01-01T11:25:22.696Z,11.70
2023-01-01T11:27:53.322Z,11.70
2023-01-01T11:30:27.622Z,11.70
2023-01-01T11:33:03.917Z,11.70
2023-01-01T11:35:37.374Z,11.80
2023-01-01T11:38:04.694Z,11.80
2023-01-01T11:40:50.230Z,11.90
2023-01-01T11:43:25.921Z,12.00
2023-01-01T11:45:57.222Z,12.10
2023-01-01T11:48:32.019Z,12.20
2023-01-01T11:51:11.981Z,12.20
2023-01-01T11:53:41.745Z,12.30
2023-01-01T11:56:17.485Z,12.40
2023-01-01T11:58:55.484Z,12.40
2023-01-01T12:01:33.382Z,12.50
2023-01-01T12:04:34.561Z,12.50
2023-01-01T12:07:15.336Z,12.60
2023-01-01T12:10:13.311Z,12.60
2023-01-01T12:12:46.769Z,12.70
2023-01-01T12:15:24.956Z,12.70
2023-01-01T12:18:27.330Z,12.70
2023-01-01T12:21:19.590Z,12.70
2023-01-01T12:23:46.779Z,12.80
2023-01-01T12:26:27.224Z,12.80
2023-01-01T12:29:24.461Z,12.90
2023-01-01T12:32:13.373Z,12.90
2023-01-01T12:35:05.343Z,12.90
2023-01-01T12:38:03.228Z,12.90
2023-01-01T12:40:56.301Z,13.00
2023-01-01T12:44:03.585Z,13.00
2023-01-01T12:46:45.546Z,13.20
2023-01-01T12:49:37.073Z,13.20
2023-01-01T12:52:14.231Z,13.30
2023-01-01T12:55:04.966Z,13.30
2023-01-01T12:57:45.434Z,13.40
2023-01-01T13:00:26.714Z,13.40
2023-01-01T13:03:16.000Z,13.50
2023-01-01T13:06:17.531Z,13.50
2023-01-01T13:09:14.183Z,13.50
2023-01-01T13:11:46.819Z,13.60
2023-01-01T13:14:14.447Z,13.60
2023-01-01T13:16:52.797Z,13.60
2023-01-01T13:20:03.060Z,13.60
2023-01-01T13:26:54.829Z,13.50
2023-01-01T13:29:23.226Z,13.50
2023-01-01T13:32:01.857Z,13.50
2023-01-01T13:35:01.959Z,13.50
2023-01-01T13:37:44.006Z,13.50
2023-01-01T13:40:14.437Z,13.50
2023-01-01T13:43:02.370Z,13.40
2023-01-01T13:48:33.817Z,13.30
2023-01-01T13:52:02.849Z,13.30
2023-01-01T13:55:29.419Z,13.30
2023-01-01T13:58:56.506Z,13.30
2023-01-01T14:01:45.577Z,13.40
2023-01-01T14:04:37.247Z,13.30
2023-01-01T14:07:51.584Z,13.40
2023-01-01T14:10:30.419Z,13.40
2023-01-01T14:13:06.537Z,13.40
2023-01-01T14:15:38.558Z,13.40
2023-01-01T14:18:19.100Z,13.40
2023-01-01T14:21:14.106Z,13.30
2023-01-01T14:24:18.241Z,13.30
2023-01-01T14:27:44.058Z,13.30
2023-01-01T14:30:25.427Z,13.30
2023-01-01T14:33:03.086Z,13.30
2023-01-01T14:35:34.804Z,13.30
2023-01-01T14:38:23.052Z,13.30
2023-01-01T14:41:14.448Z,13.30
2023-01-01T14:43:44.289Z,13.20
2023-01-01T14:46:25.210Z,13.20
2023-01-01T14:49:03.434Z,13.20
2023-01-01T14:51:37.017Z,13.20
2023-01-01T14:54:10.900Z,13.10
2023-01-01T14:56:38.312Z,13.10
2023-01-01T14:59:31.800Z,13.10
2023-01-01T15:02:26.514Z,13.00
2023-01-01T15:04:55.298Z,13.10
2023-01-01T15:07:35.568Z,13.00
2023-01-01T15:10:05.665Z,13.00
2023-01-01T15:12:34.820Z,12.90
2023-01-01T15:15:02.082Z,12.90
2023-01-01T15:17:44.422Z,12.90
2023-01-01T15:20:26.586Z,12.90
2023-01-01T15:22:55.418Z,12.90
2023-01-01T15:25:36.380Z,12.90
2023-01-01T15:28:06.414Z,12.80
2023-01-01T15:30:42.004Z,12.80
2023-01-01T15:33:14.543Z,12.80
2023-01-01T15:35:56.391Z,12.80
2023-01-01T15:38:35.089Z,12.80
2023-01-01T15:41:27.664Z,12.80
2023-01-01T15:44:43.542Z,12.80
2023-01-01T15:48:30.801Z,12.70
2023-01-01T15:51:06.508Z,12.60
2023-01-01T15:53:48.148Z,12.60
2023-01-01T15:56:16.947Z,12.60
2023-01-01T15:58:52.189Z,12.50
2023-01-01T16:01:30.876Z,12.50
2023-01-01T16:04:28.804Z,12.50
2023-01-01T16:07:02.527Z,12.50
2023-01-01T16:09:37.787Z,12.50
2023-01-01T16:12:12.905Z,12.40
2023-01-01T16:14:42.929Z,12.40
2023-01-01T16:17:48.074Z,12.40
2023-01-01T16:20:06.055Z,12.40
2023-01-01T16:22:57.159Z,12.40
2023-01-01T16:25:34.936Z,12.40
2023-01-01T16:28:06.070Z,12.40
2023-01-01T16:30:43.342Z,12.40
2023-01-01T16:33:16.051Z,12.40
2023-01-01T16:35:50.734Z,12.40
2023-01-01T16:38:23.593Z,12.30
2023-01-01T16:40:55.135Z,12.30
2023-01-01T16:43:25.288Z,12.30
2023-01-01T16:46:23.560Z,12.30
2023-01-01T16:48:58.299Z,12.30
2023-01-01T16:51:56.167Z,12.30
2023-01-01T16:54:36.330Z,12.30
2023-01-01T17:01:03.981Z,12.20
2023-01-01T17:03:31.582Z,12.20
2023-01-01T17:05:59.076Z,12.10
2023-01-01T17:08:47.290Z,12.10
2023-01-01T17:11:21.433Z,12.10
2023-01-01T17:13:52.381Z,12.10
2023-01-01T17:16:46.022Z,12.20
2023-01-01T17:19:19.472Z,12.10
2023-01-01T17:21:47.929Z,12.10
2023-01-01T17:24:17.211Z,12.10
2023-01-01T17:27:14.365Z,12.10
2023-01-01T17:29:44.317Z,12.10
2023-01-01T17:32:13.987Z,12.10
2023-01-01T17:34:53.385Z,12.10
2023-01-01T17:37:21.802Z,12.10
2023-01-01T17:39:50.347Z,12.10
2023-01-01T17:42:29.476Z,12.10
2023-01-01T17:45:02.935Z,12.10
2023-01-01T17:47:36.684Z,12.10
2023-01-01T17:50:23.485Z,12.10
2023-01-01T17:53:14.471Z,12.10
2023-01-01T17:55:44.069Z,12.10
2023-01-01T17:58:21.579Z,12.10
2023-01-01T18:00:54.102Z,12.10
2023-01-01T18:03:27.111Z,12.10
2023-01-01T18:06:04.022Z,12.10
2023-01-01T18:08:33.104Z,12.00
2023-01-01T18:11:03.251Z,12.00
2023-01-01T18:13:33.361Z,12.00
2023-01-01T18:16:06.661Z,12.00
2023-01-01T18:18:38.863Z,11.90
2023-01-01T18:21:14.626Z,11.90
2023-01-01T18:23:42.218Z,11.90
2023-01-01T18:26:11.045Z,11.90
2023-01-01T18:28:39.186Z,11.90
2023-01-01T18:31:10.808Z,11.80
2023-01-01T18:33:39.378Z,11.80
2023-01-01T18:36:18.631Z,11.80
2023-01-01T18:39:05.976Z,11.70
2023-01-01T18:41:45.670Z,11.70
2023-01-01T18:44:23.343Z,11.70
2023-01-01T18:46:58.664Z,11.70
2023-01-01T18:49:32.628Z,11.60
2023-01-01T18:52:05.824Z,11.60
2023-01-01T18:54:33.883Z,11.60
2023-01-01T18:57:28.883Z,11.60
2023-01-01T19:00:16.717Z,11.60
2023-01-01T19:03:05.638Z,11.60
2023-01-01T19:05:52.796Z,11.50
2023-01-01T19:12:57.991Z,11.50
2023-01-01T19:15:25.207Z,11.40
2023-01-01T19:18:15.016Z,11.40
2023-01-01T19:25:33.849Z,11.40
2023-01-01T19:35:37.084Z,11.40
2023-01-01T19:37:45.382Z,11.40
2023-01-01T19:40:13.919Z,11.40
2023-01-01T19:43:37.859Z,11.40
2023-01-01T19:47:14.492Z,11.40
2023-01-01T19:50:24.943Z,11.40
2023-01-01T20:00:54.911Z,11.40
2023-01-01T20:12:46.073Z,11.30
2023-01-01T20:15:55.665Z,11.30
2023-01-01T20:22:03.905Z,11.30
2023-01-01T20:24:35.315Z,11.30
2023-01-01T20:27:05.626Z,11.30
2023-01-01T20:29:36.369Z,11.30
2023-01-01T20:35:53.107Z,11.30
2023-01-01T21:54:01.073Z,11.30
2023-01-01T21:57:10.979Z,11.30
2023-01-01T21:59:43.201Z,11.30
2023-01-01T22:02:13.107Z,11.30
2023-01-01T22:04:45.524Z,11.30
2023-01-01T22:07:56.554Z,11.30
2023-01-01T22:10:19.719Z,11.30
2023-01-01T22:12:47.384Z,11.30
2023-01-01T22:15:54.079Z,11.30
2023-01-01T22:18:27.995Z,11.30
2023-01-01T22:20:56.712Z,11.20
2023-01-01T22:23:39.990Z,11.30
2023-01-01T22:26:23.733Z,11.30
2023-01-01T22:29:23.111Z,11.30
2023-01-01T22:31:58.127Z,11.30
2023-01-01T22:37:56.010Z,11.30
2023-01-01T22:41:07.752Z,11.30
2023-01-01T22:46:47.275Z,11.30
2023-01-01T22:52:51.731Z,11.30
2023-01-01T22:55:24.564Z,11.20
2023-01-01T22:58:19.604Z,11.30
2023-01-01T23:00:54.676Z,11.30
2023-01-01T23:03:24.382Z,11.30
2023-01-01T23:06:03.327Z,11.30
2023-01-01T23:08:33.839Z,11.30
2023-01-01T23:11:04.004Z,11.30
2023-01-01T23:13:52.703Z,11.30
2023-01-01T23:16:21.218Z,11.30
2023-01-01T23:18:51.097Z,11.30
2023-01-01T23:21:27.318Z,11.40
2023-01-01T23:23:56.755Z,11.30
2023-01-01T23:26:27.165Z,11.30
2023-01-01T23:28:55.931Z,11.40
2023-01-01T23:31:25.758Z,11.40
2023-01-01T23:33:56.096Z,11.40
2023-01-01T23:36:30.126Z,11.40
2023-01-01T23:39:00.058Z,11.40
2023-01-01T23:41:27.198Z,11.40
2023-01-01T23:43:54.299Z,11.40
2023-01-01T23:46:23.362Z,11.40
2023-01-01T23:48:53.149Z,11.40
2023-01-01T23:51:23.143Z,11.40
2023-01-01T23:53:52.755Z,11.40
2023-01-01T23:56:20.889Z,11.40
2023-01-01T23:58:51.023Z,11.50
